KQYB

2017-03-08 23:45:03Z

Plaintext report →

Current Status: Clear

Temperature
High0.0 °C32.0 °F
Current21.7 °C71.1 °F
Low0.0 °C32.0 °F
Feels Like21.0 °C69.8 °F
Dewpoint7.4 °C45.3 °F
Winds
Speed and Direction2.5 m/s5.6 mi/h 4 kn219 °
Gust7.7 m/s17.22 mi/h14 kn
SquallUnavailable
Pressure and Humidity
Pressure At Field Level1023.8 mb30.2 in
Pressure At Sea Level1025.0 mb30.3 in
Pressure Trend0.0 mb 0.0 in
Pressure Tendency 0
Humidity40 %

Ceilometer Alarms / Warnings:

Ceilometer Data Missing!
Historical

Additional Information:

  METAR KQYB 082345Z AUTO 22004G14KT 12SM NCD 22/07 A3023 RMK AO2 SLP250
  10000 20000 50000 $=    
Cloud Cover
Layer 1 Undetected
Layer 2 Undetected
Layer 3 Undetected
Winds
2-minute Winds
Minimum0.9 m/s2.01 mi/h 1 kn48 °
Average2.7 m/s6.04 mi/h 5 kn164 °
Maximum5.9 m/s13.20 mi/h11 kn226 °
10-minute Winds
Minimum0.4 m/s0.89 mi/h 0 kn7 °
Average2.8 m/s6.26 mi/h 5 kn178 °
Maximum7.7 m/s17.22 mi/h14 kn307 °
Precipitation
Intensity0.00 mm/h0.00 in/h
Rainfall
1-hour Total0.00 mm0.00 in
3-hour Total0.00 mm0.00 in
6-hour TotalUnavailable
24-hour TotalUnavailable
Precipitation
1-hour Total0.00 mm0.00 in
3-hour Total0.00 mm0.00 in
6-hour TotalUnavailable
24-hour TotalUnavailable
Snowfall
1-hour Total0.00 mm0.00 in
3-hour Total0.00 mm0.00 in
6-hour TotalUnavailable
24-hour TotalUnavailable